Time;durP1;ratioP1;P1;durP2;ratioP2;P2;SDS_P1;SDS_P2;PMS_P1;PMS_P2;Temp;Humidity;BMP_temperature;BMP_pressure;BME280_temperature;BME280_humidity;BME280_pressure;Samples;Min_cycle;Max_cycle;Signal;HPM_P1;HPM_P2
2023/02/01 00:02:10;;;;;;;6.80;1.30;;;;;;;2.74;100.00;100417.53;5017407;28;20260;-75
2023/02/01 00:04:38;;;;;;;8.10;1.93;;;;;;;2.69;100.00;100408.09;5019654;28;20263;-76
2023/02/01 00:07:04;;;;;;;5.53;1.67;;;;;;;2.64;100.00;100411.53;5023156;28;20476;-75
2023/02/01 00:09:31;;;;;;;4.50;1.47;;;;;;;2.61;100.00;100419.22;5021469;28;20681;-75
2023/02/01 00:11:59;;;;;;;6.80;1.30;;;;;;;2.64;100.00;100419.25;5020345;28;20204;-75
2023/02/01 00:14:25;;;;;;;9.50;1.97;;;;;;;2.62;100.00;100413.25;5021533;28;20201;-75
2023/02/01 00:16:52;;;;;;;9.60;1.87;;;;;;;2.57;100.00;100425.22;5030516;28;20201;-76
2023/02/01 00:19:18;;;;;;;5.90;1.57;;;;;;;2.58;100.00;100420.94;5020832;28;20204;-75
2023/02/01 00:21:46;;;;;;;8.40;1.40;;;;;;;2.50;100.00;100412.31;5019469;28;20215;-74
2023/02/01 00:24:13;;;;;;;4.97;1.43;;;;;;;2.52;100.00;100423.50;5004591;23;20248;-72
2023/02/01 00:26:41;;;;;;;8.17;1.73;;;;;;;2.53;100.00;100427.78;4998087;28;20293;-72
2023/02/01 00:29:12;;;;;;;6.33;2.23;;;;;;;2.44;100.00;100423.44;4990326;28;20216;-72
2023/02/01 00:31:38;;;;;;;11.47;1.53;;;;;;;2.39;100.00;100414.84;4990544;28;20204;-72
2023/02/01 00:34:05;;;;;;;4.23;1.70;;;;;;;2.37;100.00;100421.72;5005919;28;20230;-72
2023/02/01 00:36:32;;;;;;;9.27;1.77;;;;;;;2.35;100.00;100424.28;4991607;28;20188;-72
2023/02/01 00:38:59;;;;;;;4.13;1.30;;;;;;;2.33;100.00;100420.00;4989858;28;20202;-72
2023/02/01 00:41:26;;;;;;;5.00;1.43;;;;;;;2.32;100.00;100426.81;4989482;28;20206;-72
2023/02/01 00:43:53;;;;;;;8.03;1.60;;;;;;;2.34;100.00;100435.44;4988017;28;20597;-73
2023/02/01 00:46:21;;;;;;;9.50;1.73;;;;;;;2.31;100.00;100432.84;4989202;28;20197;-71
2023/02/01 00:48:47;;;;;;;10.20;1.93;;;;;;;2.33;100.00;100433.72;5004731;28;20204;-72
2023/02/01 00:51:16;;;;;;;6.57;1.80;;;;;;;2.26;100.00;100440.53;5007704;28;20226;-72
2023/02/01 00:53:42;;;;;;;6.57;2.00;;;;;;;2.34;100.00;100437.13;4987724;28;20217;-72
2023/02/01 00:56:11;;;;;;;3.63;1.50;;;;;;;2.30;100.00;100435.41;4992023;28;20673;-71
2023/02/01 00:58:38;;;;;;;6.23;1.83;;;;;;;2.21;100.00;100441.38;4992252;28;20198;-72
2023/02/01 01:01:05;;;;;;;14.10;1.87;;;;;;;2.18;100.00;100444.78;4990840;28;20240;-71
2023/02/01 01:03:34;;;;;;;8.47;2.10;;;;;;;2.19;100.00;100435.34;4993500;28;20225;-71
2023/02/01 01:06:02;;;;;;;4.00;1.53;;;;;;;2.17;100.00;100444.78;4991310;28;20800;-72
2023/02/01 01:08:28;;;;;;;9.40;2.17;;;;;;;2.20;100.00;100429.34;4988635;28;20292;-71
2023/02/01 01:10:55;;;;;;;8.17;1.50;;;;;;;2.12;100.00;100439.59;4988020;28;20209;-72
2023/02/01 01:13:23;;;;;;;5.97;1.70;;;;;;;2.11;100.00;100424.16;4992232;28;20666;-71
2023/02/01 01:15:49;;;;;;;7.40;1.90;;;;;;;2.11;100.00;100431.88;4988489;28;20202;-72
2023/02/01 01:18:16;;;;;;;12.50;1.80;;;;;;;2.12;100.00;100436.19;4988681;28;20208;-71
2023/02/01 01:20:42;;;;;;;7.60;2.07;;;;;;;2.08;100.00;100417.31;4989541;28;20208;-72
2023/02/01 01:23:09;;;;;;;8.63;1.73;;;;;;;2.06;100.00;100427.56;4989879;28;20225;-71
2023/02/01 01:25:38;;;;;;;5.00;1.67;;;;;;;2.13;100.00;100425.91;5006045;28;20231;-72
2023/02/01 01:28:05;;;;;;;8.40;2.27;;;;;;;2.13;100.00;100419.88;4988085;28;20202;-72
2023/02/01 01:30:34;;;;;;;10.43;2.07;;;;;;;2.20;100.00;100416.47;4989519;28;20208;-72
2023/02/01 01:33:00;;;;;;;10.53;2.47;;;;;;;2.13;100.00;100414.72;4989220;28;20275;-72
2023/02/01 01:35:31;;;;;;;5.73;1.50;;;;;;;2.15;100.00;100416.47;4990108;28;20190;-71
2023/02/01 01:37:58;;;;;;;10.37;1.90;;;;;;;2.16;100.00;100412.19;4985299;28;20304;-71
2023/02/01 01:40:25;;;;;;;7.43;1.90;;;;;;;2.19;100.00;100418.19;5006390;28;20682;-72
2023/02/01 01:42:54;;;;;;;6.43;1.53;;;;;;;2.23;100.00;100413.94;4986893;28;20228;-71
2023/02/01 01:45:27;;;;;;;6.80;1.60;;;;;;;2.29;100.00;100413.97;4983413;28;20209;-72
2023/02/01 01:47:58;;;;;;;6.70;1.60;;;;;;;2.40;100.00;100414.00;4987587;28;20441;-71
2023/02/01 01:50:29;;;;;;;5.00;1.43;;;;;;;2.45;100.00;100413.16;4989346;28;20626;-72
2023/02/01 01:53:03;;;;;;;10.23;2.53;;;;;;;2.43;100.00;100419.19;4985395;28;20221;-72
2023/02/01 01:55:34;;;;;;;11.73;2.30;;;;;;;2.39;100.00;100392.56;4985596;28;20224;-72
2023/02/01 01:58:05;;;;;;;14.13;2.03;;;;;;;2.41;100.00;100406.31;5000361;28;20201;-72
2023/02/01 02:00:33;;;;;;;7.53;2.07;;;;;;;2.33;100.00;100420.00;4998502;28;20213;-72
2023/02/01 02:03:07;;;;;;;10.70;1.50;;;;;;;2.41;100.00;100418.28;4985686;28;20308;-71
2023/02/01 02:05:34;;;;;;;6.90;1.80;;;;;;;2.39;100.00;100417.44;5005869;28;20224;-72
2023/02/01 02:08:02;;;;;;;6.90;1.53;;;;;;;2.35;100.00;100416.56;5005886;28;20448;-72
2023/02/01 02:13:11;;;;;;;5.60;1.40;;;;;;;2.23;100.00;100408.78;4987997;28;20586;-71
2023/02/01 02:15:44;;;;;;;3.37;1.60;;;;;;;2.24;100.00;100403.66;4991412;28;20211;-72
2023/02/01 02:18:18;;;;;;;10.37;2.10;;;;;;;2.24;100.00;100397.66;4989497;28;20205;-72
2023/02/01 02:21:10;;;;;;;4.40;1.60;;;;;;;2.20;100.00;100403.63;4988832;28;20481;-71
2023/02/01 02:24:05;;;;;;;6.43;1.80;;;;;;;2.14;100.00;100399.31;5001642;28;20229;-72
2023/02/01 02:26:52;;;;;;;6.67;1.87;;;;;;;2.13;100.00;100407.91;5002423;28;20254;-72
2023/02/01 02:29:51;;;;;;;4.70;2.23;;;;;;;2.11;100.00;100407.03;4984010;28;20193;-72
2023/02/01 02:32:34;;;;;;;10.23;1.70;;;;;;;2.16;100.00;100412.19;5000545;28;20346;-72
2023/02/01 02:35:08;;;;;;;4.67;1.33;;;;;;;2.16;100.00;100400.16;4989755;28;20197;-72
2023/02/01 02:37:41;;;;;;;11.50;1.60;;;;;;;2.27;100.00;100401.09;4992464;28;20219;-71
2023/02/01 02:40:16;;;;;;;4.93;1.57;;;;;;;2.26;100.00;100404.50;5000754;28;20297;-71
2023/02/01 02:48:31;;;;;;;7.17;1.40;;;;;;;2.34;100.00;100406.25;4990100;28;20201;-72
2023/02/01 03:05:07;;;;;;;5.37;1.43;;;;;;;2.47;100.00;100393.44;4988891;28;20220;-72
2023/02/01 03:08:04;;;;;;;3.43;1.50;;;;;;;2.50;100.00;100396.88;5005851;28;20197;-71
2023/02/01 03:10:42;;;;;;;10.30;2.10;;;;;;;2.58;100.00;100397.75;4988338;28;20235;-71
2023/02/01 03:13:13;;;;;;;9.53;1.73;;;;;;;2.62;100.00;100395.22;5005304;28;20228;-72
2023/02/01 03:15:44;;;;;;;8.50;1.67;;;;;;;2.63;100.00;100406.38;4997758;28;20586;-72
2023/02/01 03:18:17;;;;;;;5.17;1.40;;;;;;;2.61;100.00;100400.34;5005773;28;20206;-71
2023/02/01 03:20:48;;;;;;;3.60;1.37;;;;;;;2.55;100.00;100403.78;4986048;28;20210;-72
2023/02/01 03:23:20;;;;;;;8.40;1.80;;;;;;;2.58;100.00;100400.34;4987439;28;20231;-72
2023/02/01 03:25:50;;;;;;;8.23;1.97;;;;;;;2.57;100.00;100409.78;4983233;28;20217;-72
2023/02/01 03:28:21;;;;;;;6.23;1.50;;;;;;;2.61;100.00;100403.78;4987028;28;20210;-72
2023/02/01 03:30:50;;;;;;;7.83;1.60;;;;;;;2.60;100.00;100399.50;4985050;28;20251;-72
2023/02/01 03:33:22;;;;;;;8.30;1.60;;;;;;;2.57;100.00;100403.75;4989104;28;20585;-72
2023/02/01 03:35:59;;;;;;;7.77;1.60;;;;;;;2.51;100.00;100393.47;4990550;28;20247;-72
2023/02/01 03:38:33;;;;;;;4.77;1.23;;;;;;;2.49;100.00;100393.44;4985409;28;20785;-72
2023/02/01 03:41:09;;;;;;;4.70;1.17;;;;;;;2.52;100.00;100396.03;4991702;28;20576;-72
2023/02/01 03:43:43;;;;;;;11.80;2.27;;;;;;;2.52;100.00;100398.63;4992179;28;20225;-71
2023/02/01 03:46:17;;;;;;;8.93;1.87;;;;;;;2.55;100.00;100390.91;5007262;28;20208;-72
2023/02/01 03:48:45;;;;;;;6.40;1.97;;;;;;;2.55;100.00;100393.47;4994266;28;20247;-71
2023/02/01 03:51:11;;;;;;;7.70;1.80;;;;;;;2.58;100.00;100392.63;5008395;28;20279;-72
2023/02/01 03:53:43;;;;;;;9.23;1.90;;;;;;;2.56;100.00;100392.59;4991985;28;20315;-72
2023/02/01 03:56:11;;;;;;;5.40;1.73;;;;;;;2.59;100.00;100392.63;5008273;28;20193;-72
2023/02/01 03:58:38;;;;;;;8.87;1.43;;;;;;;2.61;100.00;100385.75;4992823;28;20194;-71
2023/02/01 04:01:05;;;;;;;6.47;1.93;;;;;;;2.62;100.00;100384.03;5008015;28;20233;-71
2023/02/01 04:03:35;;;;;;;8.03;1.17;;;;;;;2.61;100.00;100384.91;4987153;28;20224;-72
2023/02/01 04:06:02;;;;;;;4.97;1.33;;;;;;;2.59;100.00;100373.75;4989962;28;20268;-72
2023/02/01 04:08:29;;;;;;;6.63;1.43;;;;;;;2.63;100.00;100368.59;5004075;28;20202;-72
2023/02/01 04:10:57;;;;;;;8.67;1.57;;;;;;;2.69;100.00;100361.75;4994619;28;20203;-72
2023/02/01 04:13:24;;;;;;;5.20;1.30;;;;;;;2.69;100.00;100354.91;4993824;28;20220;-71
2023/02/01 04:15:50;;;;;;;7.27;1.93;;;;;;;2.68;100.00;100366.03;4991160;28;20201;-72
2023/02/01 04:18:17;;;;;;;10.47;1.60;;;;;;;2.69;100.00;100360.06;4990429;28;20197;-72
2023/02/01 04:20:44;;;;;;;6.90;2.23;;;;;;;2.71;100.00;100352.31;5003607;28;20232;-71
2023/02/01 04:23:11;;;;;;;7.37;2.20;;;;;;;2.71;100.00;100358.34;4989313;28;20237;-72
2023/02/01 04:25:37;;;;;;;4.47;1.33;;;;;;;2.67;100.00;100359.16;4990263;28;20689;-72
2023/02/01 04:28:06;;;;;;;8.70;1.67;;;;;;;2.67;100.00;100359.16;4990964;28;20197;-71
2023/02/01 04:30:33;;;;;;;5.47;1.43;;;;;;;2.69;100.00;100354.91;4994068;28;20201;-72
2023/02/01 04:32:59;;;;;;;5.87;1.77;;;;;;;2.72;100.00;100361.75;4990683;28;20239;-71
2023/02/01 04:35:26;;;;;;;4.43;1.47;;;;;;;2.69;100.00;100360.06;4986410;28;20209;-72
2023/02/01 04:37:52;;;;;;;3.13;1.53;;;;;;;2.71;100.00;100354.88;5005976;28;20214;-72
2023/02/01 04:40:18;;;;;;;5.57;1.60;;;;;;;2.70;100.00;100354.03;4992711;28;20553;-72
2023/02/01 04:42:45;;;;;;;7.27;1.47;;;;;;;2.68;100.00;100349.75;4991417;28;20233;-72
2023/02/01 04:45:13;;;;;;;2.90;1.27;;;;;;;2.62;100.00;100351.47;4989088;28;20214;-72
2023/02/01 04:47:39;;;;;;;3.83;1.33;;;;;;;2.62;100.00;100361.75;4987469;28;20202;-72
2023/02/01 04:50:10;;;;;;;3.93;1.13;;;;;;;2.63;100.00;100357.44;4987311;28;20414;-71
2023/02/01 04:52:36;;;;;;;7.47;1.77;;;;;;;2.62;100.00;100359.19;4990497;28;20229;-71
2023/02/01 04:55:03;;;;;;;5.53;1.63;;;;;;;2.63;100.00;100363.44;4988198;28;20201;-72
2023/02/01 04:57:29;;;;;;;6.53;1.50;;;;;;;2.65;100.00;100356.59;4990768;28;20210;-72
2023/02/01 04:59:56;;;;;;;9.73;1.73;;;;;;;2.64;100.00;100359.19;4988439;28;20201;-72
2023/02/01 05:02:23;;;;;;;4.90;1.60;;;;;;;2.61;100.00;100342.00;4988757;28;20201;-71
2023/02/01 05:04:50;;;;;;;7.13;1.40;;;;;;;2.61;100.00;100349.72;4986837;28;20201;-72
2023/02/01 05:07:17;;;;;;;4.07;1.57;;;;;;;2.60;100.00;100342.00;4989048;28;20224;-72
2023/02/01 05:09:44;;;;;;;7.13;1.63;;;;;;;2.59;100.00;100346.28;4987250;28;20294;-72
2023/02/01 05:14:54;;;;;;;4.90;1.63;;;;;;;2.59;100.00;100343.72;4988393;28;20193;-72
2023/02/01 05:17:21;;;;;;;9.33;1.50;;;;;;;2.61;100.00;100339.44;4989590;28;20205;-71
2023/02/01 05:19:48;;;;;;;4.60;1.60;;;;;;;2.63;100.00;100349.72;4988275;28;20234;-72
2023/02/01 05:22:15;;;;;;;3.73;1.47;;;;;;;2.65;100.00;100348.88;4988946;28;20474;-72
2023/02/01 05:24:41;;;;;;;4.77;1.80;;;;;;;2.67;100.00;100348.03;4989136;28;20473;-71
2023/02/01 05:27:07;;;;;;;6.23;2.03;;;;;;;2.68;100.00;100342.03;4989121;28;20878;-72
2023/02/01 05:29:34;;;;;;;5.90;1.50;;;;;;;2.67;100.00;100342.88;4990261;28;20208;-71
2023/02/01 05:32:00;;;;;;;5.10;1.77;;;;;;;2.69;100.00;100336.00;5003801;28;20669;-72
2023/02/01 05:34:28;;;;;;;6.53;1.70;;;;;;;2.71;100.00;100344.59;4990020;28;20818;-71
2023/02/01 05:36:55;;;;;;;8.10;1.77;;;;;;;2.71;100.00;100342.00;4986933;28;20212;-72
2023/02/01 05:39:22;;;;;;;10.47;1.83;;;;;;;2.71;100.00;100339.44;4990804;28;20525;-73
2023/02/01 05:41:48;;;;;;;4.00;1.60;;;;;;;2.68;100.00;100329.16;4987881;28;20189;-72
2023/02/01 05:44:14;;;;;;;8.07;2.00;;;;;;;2.65;100.00;100327.41;5005829;28;20642;-72
2023/02/01 05:46:41;;;;;;;7.30;2.33;;;;;;;2.69;100.00;100321.44;4991352;28;20221;-73
2023/02/01 05:49:08;;;;;;;6.67;1.70;;;;;;;2.70;100.00;100328.28;4990141;28;20677;-73
2023/02/01 05:51:34;;;;;;;7.60;1.83;;;;;;;2.72;100.00;100326.56;4989473;28;20212;-71
2023/02/01 05:54:02;;;;;;;5.80;2.20;;;;;;;2.72;100.00;100318.84;4988477;28;20509;-72
2023/02/01 05:56:28;;;;;;;12.30;1.87;;;;;;;2.75;100.00;100321.44;4986046;28;20440;-72
2023/02/01 05:58:55;;;;;;;8.73;1.83;;;;;;;2.70;100.00;100315.41;4984726;28;20241;-72
2023/02/01 06:01:21;;;;;;;7.10;1.77;;;;;;;2.75;100.00;100320.59;4986411;28;20200;-73
2023/02/01 06:03:48;;;;;;;6.13;1.73;;;;;;;2.75;100.00;100318.84;4987231;28;20237;-72
2023/02/01 06:06:14;;;;;;;10.57;1.90;;;;;;;2.77;100.00;100314.56;4987793;28;20220;-72
2023/02/01 06:08:40;;;;;;;8.53;2.33;;;;;;;2.74;100.00;100314.56;4990619;28;20291;-72
2023/02/01 06:11:08;;;;;;;6.10;2.20;;;;;;;2.67;100.00;100311.97;4987608;28;20203;-72
2023/02/01 06:13:35;;;;;;;5.47;1.87;;;;;;;2.64;100.00;100310.28;4990512;28;20217;-73
2023/02/01 06:16:02;;;;;;;4.03;1.77;;;;;;;2.58;100.00;100305.09;4990268;28;20615;-73
2023/02/01 06:18:30;;;;;;;6.67;1.80;;;;;;;2.55;100.00;100310.22;4991096;28;20197;-72
2023/02/01 06:20:59;;;;;;;5.90;2.00;;;;;;;2.50;100.00;100306.78;4989148;28;20286;-72
2023/02/01 06:23:26;;;;;;;6.40;1.60;;;;;;;2.46;100.00;100299.09;5012689;23;20312;-73
2023/02/01 06:25:59;;;;;;;10.87;2.17;;;;;;;2.44;100.00;100310.22;5020891;28;20228;-72
2023/02/01 06:28:27;;;;;;;6.43;2.00;;;;;;;2.38;100.00;100310.22;5020783;28;20235;-72
2023/02/01 06:30:55;;;;;;;11.50;2.67;;;;;;;2.36;100.00;100310.22;5004642;28;20229;-73
2023/02/01 06:33:22;;;;;;;8.10;2.03;;;;;;;2.35;100.00;100299.91;4982876;28;20197;-72
2023/02/01 06:35:48;;;;;;;7.17;2.43;;;;;;;2.34;100.00;100306.78;5003189;28;20192;-73
2023/02/01 06:38:15;;;;;;;6.23;1.93;;;;;;;2.30;100.00;100304.19;5000231;28;20204;-73
2023/02/01 06:40:42;;;;;;;4.03;1.70;;;;;;;2.27;100.00;100305.06;5003643;28;20225;-72
2023/02/01 06:43:08;;;;;;;7.57;1.90;;;;;;;2.24;100.00;100298.16;5006715;28;20206;-73
2023/02/01 06:45:36;;;;;;;4.57;2.03;;;;;;;2.23;100.00;100301.63;5000171;28;20207;-74
2023/02/01 06:48:02;;;;;;;11.70;2.10;;;;;;;2.24;100.00;100297.31;5001855;28;20614;-74
2023/02/01 06:50:29;;;;;;;7.90;2.23;;;;;;;2.24;100.00;100292.19;5003080;28;20232;-73
2023/02/01 06:52:55;;;;;;;7.67;2.50;;;;;;;2.22;100.00;100294.75;4997417;28;20211;-73
2023/02/01 06:55:22;;;;;;;7.53;1.90;;;;;;;2.23;100.00;100286.19;5002140;28;20530;-72
2023/02/01 06:57:48;;;;;;;8.67;2.50;;;;;;;2.23;100.00;100286.19;4999487;28;20244;-72
2023/02/01 07:00:15;;;;;;;8.07;2.83;;;;;;;2.24;100.00;100292.19;5003304;28;20226;-73
2023/02/01 07:02:43;;;;;;;10.13;2.20;;;;;;;2.24;100.00;100293.03;5002365;28;20207;-73
2023/02/01 07:05:10;;;;;;;10.07;2.00;;;;;;;2.23;100.00;100287.88;5002328;28;20268;-73
2023/02/01 07:07:36;;;;;;;5.37;2.13;;;;;;;2.26;100.00;100285.31;4999438;28;20235;-73
2023/02/01 07:10:02;;;;;;;4.13;1.93;;;;;;;2.26;100.00;100283.59;5003710;28;20704;-73
2023/02/01 07:12:29;;;;;;;5.00;2.30;;;;;;;2.27;100.00;100294.75;5008218;28;20196;-72
2023/02/01 07:14:56;;;;;;;9.10;2.27;;;;;;;2.33;100.00;100281.03;5003306;28;20715;-72
2023/02/01 07:17:22;;;;;;;9.73;2.60;;;;;;;2.36;100.00;100287.06;5010659;28;20196;-74
2023/02/01 07:19:50;;;;;;;6.90;2.13;;;;;;;2.38;100.00;100280.19;5003227;28;20198;-73
2023/02/01 07:22:17;;;;;;;10.33;2.47;;;;;;;2.43;100.00;100275.06;5005130;28;20550;-73
2023/02/01 07:24:43;;;;;;;13.57;2.87;;;;;;;2.46;100.00;100277.63;5005467;28;20208;-73
2023/02/01 07:27:09;;;;;;;7.53;2.57;;;;;;;2.44;100.00;100285.34;5007700;28;20562;-70
2023/02/01 07:29:36;;;;;;;4.77;2.03;;;;;;;2.44;100.00;100275.03;5004367;28;20207;-72
2023/02/01 07:32:04;;;;;;;9.67;2.33;;;;;;;2.44;100.00;100276.75;5009072;28;20229;-73
2023/02/01 07:34:30;;;;;;;8.13;1.83;;;;;;;2.46;100.00;100275.94;5008297;28;20250;-71
2023/02/01 07:36:58;;;;;;;9.80;2.43;;;;;;;2.48;100.00;100263.06;5011164;28;20200;-71
2023/02/01 07:39:24;;;;;;;8.60;3.50;;;;;;;2.49;100.00;100274.22;5006281;28;20189;-72
2023/02/01 07:41:51;;;;;;;7.47;2.47;;;;;;;2.50;100.00;100274.22;5005762;28;20236;-73
2023/02/01 07:44:22;;;;;;;11.13;2.67;;;;;;;2.54;100.00;100265.63;5008766;28;20682;-74
2023/02/01 07:46:48;;;;;;;7.13;2.50;;;;;;;2.54;100.00;100267.34;5005615;28;20731;-73
2023/02/01 07:49:15;;;;;;;10.53;2.67;;;;;;;2.51;100.00;100259.63;5008030;28;20211;-73
2023/02/01 07:51:41;;;;;;;3.93;2.07;;;;;;;2.54;100.00;100257.91;5001005;28;20608;-73
2023/02/01 07:54:10;;;;;;;10.80;2.07;;;;;;;2.58;100.00;100256.19;5007127;28;20207;-73
2023/02/01 07:56:36;;;;;;;3.97;1.97;;;;;;;2.58;100.00;100248.47;4994610;28;20200;-73
2023/02/01 07:59:04;;;;;;;5.10;1.63;;;;;;;2.60;100.00;100254.47;5008491;28;20301;-73
2023/02/01 08:01:29;;;;;;;8.33;2.30;;;;;;;2.58;100.00;100239.03;5003338;28;20224;-73
2023/02/01 08:03:58;;;;;;;11.03;2.50;;;;;;;2.59;100.00;100243.34;4986298;28;20201;-73
2023/02/01 08:06:25;;;;;;;8.50;2.07;;;;;;;2.58;100.00;100241.59;5003012;28;20224;-71
2023/02/01 08:08:53;;;;;;;5.83;2.10;;;;;;;2.60;100.00;100236.47;5003461;28;20280;-73
2023/02/01 08:11:22;;;;;;;8.20;1.80;;;;;;;2.62;100.00;100234.75;4985350;28;20217;-73
2023/02/01 08:13:49;;;;;;;9.97;1.93;;;;;;;2.62;100.00;100227.00;5004423;28;20200;-72
2023/02/01 08:16:17;;;;;;;11.13;2.97;;;;;;;2.61;100.00;100228.75;5005116;28;20204;-73
2023/02/01 08:18:43;;;;;;;12.10;2.67;;;;;;;2.66;100.00;100218.47;5008425;28;20218;-73
2023/02/01 08:21:12;;;;;;;10.37;2.43;;;;;;;2.67;100.00;100211.59;5003851;28;20580;-73
2023/02/01 08:23:39;;;;;;;8.10;2.37;;;;;;;2.70;100.00;100206.44;4998711;28;20213;-73
2023/02/01 08:26:09;;;;;;;10.60;2.27;;;;;;;2.74;100.00;100205.56;5004693;28;20218;-73
2023/02/01 08:28:37;;;;;;;8.73;2.60;;;;;;;2.80;100.00;100206.44;5006884;28;20204;-74
2023/02/01 08:31:08;;;;;;;8.93;2.00;;;;;;;2.87;100.00;100191.84;4999897;28;20224;-73
2023/02/01 08:33:36;;;;;;;4.53;2.07;;;;;;;2.87;100.00;100181.53;5004595;28;20206;-74
2023/02/01 08:36:04;;;;;;;10.03;2.63;;;;;;;2.84;100.00;100192.69;5009082;28;20555;-73
2023/02/01 08:38:30;;;;;;;8.77;2.37;;;;;;;2.86;100.00;100196.97;4987071;28;20686;-73
2023/02/01 08:40:57;;;;;;;4.73;2.03;;;;;;;2.84;100.00;100191.81;5004131;28;20228;-74
2023/02/01 08:43:25;;;;;;;11.97;2.87;;;;;;;2.88;100.00;100195.25;5001000;28;20194;-73
2023/02/01 08:45:56;;;;;;;9.90;2.70;;;;;;;2.84;100.00;100174.66;5002459;28;20202;-71
2023/02/01 08:48:22;;;;;;;7.77;2.17;;;;;;;2.79;100.00;100171.22;5002168;28;20205;-72
2023/02/01 08:50:49;;;;;;;4.17;2.00;;;;;;;2.75;100.00;100172.09;5006376;28;20221;-73
2023/02/01 08:53:15;;;;;;;8.60;2.53;;;;;;;2.72;100.00;100159.22;4986268;28;20198;-73
2023/02/01 08:55:42;;;;;;;8.40;2.03;;;;;;;2.70;100.00;100163.53;5005883;28;20209;-73
2023/02/01 08:58:08;;;;;;;12.73;2.47;;;;;;;2.72;100.00;100155.81;4993942;28;20212;-72
2023/02/01 09:00:34;;;;;;;8.90;2.20;;;;;;;2.70;100.00;100148.06;5001809;28;20221;-73
2023/02/01 09:03:02;;;;;;;9.27;2.93;;;;;;;2.72;100.00;100154.06;5000480;28;20574;-71
2023/02/01 09:05:28;;;;;;;3.97;2.03;;;;;;;2.76;100.00;100152.34;5004826;28;20198;-72
2023/02/01 09:07:55;;;;;;;7.87;2.53;;;;;;;2.76;100.00;100140.34;5002311;28;20562;-72
2023/02/01 09:10:21;;;;;;;8.30;2.60;;;;;;;2.76;100.00;100142.06;5005690;28;20226;-72
2023/02/01 09:12:48;;;;;;;5.23;2.00;;;;;;;2.70;100.00;100131.78;5002751;28;20626;-73
2023/02/01 09:15:14;;;;;;;6.73;2.87;;;;;;;2.64;100.00;100137.81;5004794;28;20220;-73
2023/02/01 09:17:43;;;;;;;6.13;2.00;;;;;;;2.60;100.00;100142.09;4998498;28;20749;-73
2023/02/01 09:20:12;;;;;;;9.63;3.40;;;;;;;2.59;100.00;100148.09;5005916;28;20214;-71
2023/02/01 09:22:38;;;;;;;8.30;2.63;;;;;;;2.57;100.00;100146.38;5000840;28;20202;-73
2023/02/01 09:25:06;;;;;;;9.90;3.23;;;;;;;2.56;100.00;100145.50;5006345;28;20220;-73
2023/02/01 09:27:32;;;;;;;7.53;3.13;;;;;;;2.53;100.00;100134.38;5004259;28;20215;-72
2023/02/01 09:29:59;;;;;;;6.97;3.03;;;;;;;2.52;100.00;100158.41;5003436;28;20211;-73
2023/02/01 09:32:25;;;;;;;18.27;9.07;;;;;;;2.53;100.00;100150.66;5005074;28;20200;-73
2023/02/01 09:34:53;;;;;;;10.17;2.40;;;;;;;2.51;100.00;100147.22;5002139;28;20206;-73
2023/02/01 09:37:21;;;;;;;7.27;2.00;;;;;;;2.51;100.00;100156.69;5002268;28;20197;-73
2023/02/01 09:39:47;;;;;;;3.13;2.40;;;;;;;2.49;100.00;100164.41;5005688;28;20215;-73
2023/02/01 09:42:27;;;;;;;8.23;2.30;;;;;;;2.46;100.00;100151.53;5007302;28;20203;-73
2023/02/01 09:45:06;;;;;;;5.20;2.50;;;;;;;2.45;100.00;100160.97;5005785;28;20196;-73
2023/02/01 09:47:36;;;;;;;5.33;2.73;;;;;;;2.48;100.00;100162.69;5003761;28;20209;-73
2023/02/01 09:50:16;;;;;;;6.83;2.60;;;;;;;2.51;100.00;100146.38;5000367;28;20629;-73
2023/02/01 09:52:51;;;;;;;5.70;2.60;;;;;;;2.51;100.00;100142.09;4998001;28;20292;-72
2023/02/01 09:55:21;;;;;;;7.50;2.60;;;;;;;2.47;100.00;100155.81;4998881;28;20200;-72
2023/02/01 09:57:54;;;;;;;3.57;2.37;;;;;;;2.49;100.00;100151.53;4999460;28;20807;-73
2023/02/01 10:00:25;;;;;;;4.77;2.07;;;;;;;2.49;100.00;100163.56;5003968;28;20692;-73
2023/02/01 10:02:54;;;;;;;6.87;2.50;;;;;;;2.47;100.00;100171.28;5000996;28;20202;-73
2023/02/01 10:05:35;;;;;;;6.10;2.57;;;;;;;2.49;100.00;100168.69;5004872;28;20193;-73
2023/02/01 10:08:11;;;;;;;5.37;2.37;;;;;;;2.52;100.00;100174.69;4999556;28;20234;-73
2023/02/01 10:10:44;;;;;;;7.00;2.63;;;;;;;2.54;100.00;100174.69;4998541;28;20220;-72
2023/02/01 10:13:27;;;;;;;7.17;2.50;;;;;;;2.53;100.00;100181.53;5004019;28;20620;-73
2023/02/01 10:16:07;;;;;;;5.47;2.20;;;;;;;2.54;100.00;100180.69;5002728;28;20208;-71
2023/02/01 10:19:05;;;;;;;4.90;2.40;;;;;;;2.57;100.00;100197.84;5002407;28;20649;-74
2023/02/01 10:21:44;;;;;;;5.10;2.03;;;;;;;2.54;100.00;100201.28;5002480;28;20228;-73
2023/02/01 10:24:46;;;;;;;3.10;2.23;;;;;;;2.54;100.00;100183.28;5001792;28;20287;-72
2023/02/01 10:27:22;;;;;;;5.77;2.30;;;;;;;2.52;100.00;100205.59;4998713;28;20220;-73
2023/02/01 10:29:54;;;;;;;4.17;2.13;;;;;;;2.54;100.00;100213.31;4998284;28;20204;-73
2023/02/01 10:32:24;;;;;;;9.23;2.57;;;;;;;2.52;100.00;100204.72;4998888;28;20212;-73
2023/02/01 10:34:56;;;;;;;4.23;2.60;;;;;;;2.55;100.00;100209.84;5002815;28;20208;-72
2023/02/01 10:37:27;;;;;;;6.00;2.87;;;;;;;2.58;100.00;100222.72;4985810;28;20205;-73
2023/02/01 10:39:57;;;;;;;5.77;1.83;;;;;;;2.60;100.00;100221.00;5002691;28;20658;-73
2023/02/01 10:42:28;;;;;;;4.67;1.97;;;;;;;2.64;100.00;100236.47;4995415;28;20235;-72
2023/02/01 10:44:57;;;;;;;3.50;2.60;;;;;;;2.68;100.00;100228.75;5001916;28;20273;-73
2023/02/01 10:47:24;;;;;;;4.53;1.90;;;;;;;2.70;100.00;100225.31;5005249;28;20205;-74
2023/02/01 10:49:56;;;;;;;2.80;2.13;;;;;;;2.74;100.00;100236.47;5003180;28;20205;-73
2023/02/01 10:52:35;;;;;;;3.80;2.40;;;;;;;2.74;100.00;100237.31;5003951;28;20204;-73
2023/02/01 10:55:43;;;;;;;4.40;2.53;;;;;;;2.70;100.00;100233.03;5000695;28;20613;-73
2023/02/01 10:58:18;;;;;;;6.20;2.30;;;;;;;2.65;100.00;100238.16;4968513;28;20213;-73
2023/02/01 11:00:48;;;;;;;6.30;3.23;;;;;;;2.69;100.00;100233.91;5003054;28;20231;-73
2023/02/01 11:03:34;;;;;;;11.17;5.33;;;;;;;2.74;100.00;100224.44;5000376;28;20208;-73
2023/02/01 11:06:02;;;;;;;7.53;3.67;;;;;;;2.74;100.00;100221.88;5001762;28;20200;-70
2023/02/01 11:08:29;;;;;;;13.13;4.77;;;;;;;2.74;100.00;100232.16;5002229;28;20220;-73
2023/02/01 11:10:59;;;;;;;14.17;6.83;;;;;;;2.87;100.00;100214.13;5004570;28;20311;-73
2023/02/01 11:13:31;;;;;;;10.70;5.60;;;;;;;2.93;100.00;100214.13;5000166;28;20208;-73
2023/02/01 11:15:58;;;;;;;8.60;4.13;;;;;;;3.01;100.00;100210.69;4985451;28;20724;-73
2023/02/01 11:18:28;;;;;;;19.33;7.53;;;;;;;3.03;100.00;100227.00;5002375;28;20605;-73
2023/02/01 11:20:55;;;;;;;10.17;4.93;;;;;;;3.10;100.00;100222.69;5004375;28;20685;-74
2023/02/01 11:23:25;;;;;;;5.83;2.60;;;;;;;3.17;100.00;100223.53;5005483;28;20506;-74
2023/02/01 11:25:54;;;;;;;4.80;2.33;;;;;;;3.29;100.00;100220.94;5002547;28;20209;-70
2023/02/01 11:28:24;;;;;;;8.57;3.43;;;;;;;3.38;100.00;100228.63;5004032;28;20307;-73
2023/02/01 11:30:55;;;;;;;3.10;2.20;;;;;;;3.39;100.00;100232.06;5004190;28;20235;-71
2023/02/01 11:33:29;;;;;;;5.70;2.00;;;;;;;3.52;100.00;100220.84;5001255;28;20275;-73
2023/02/01 11:35:57;;;;;;;2.10;1.47;;;;;;;3.58;100.00;100218.25;4999525;28;20201;-72
2023/02/01 11:38:28;;;;;;;5.43;2.23;;;;;;;3.61;100.00;100230.28;5002749;28;20198;-73
2023/02/01 11:40:55;;;;;;;5.40;2.10;;;;;;;3.66;100.00;100225.97;4998607;28;20680;-73
2023/02/01 11:43:25;;;;;;;6.30;1.83;;;;;;;3.73;100.00;100231.94;5002870;28;20209;-73
2023/02/01 11:45:58;;;;;;;5.73;2.30;;;;;;;3.78;100.00;100230.19;5000562;28;20545;-73
2023/02/01 11:48:27;;;;;;;5.37;2.40;;;;;;;3.85;100.00;100231.03;5001190;28;20215;-73
2023/02/01 11:51:17;;;;;;;7.23;1.70;;;;;;;3.96;100.00;100226.69;4999898;28;20613;-73
2023/02/01 11:54:02;;;;;;;3.40;1.60;;;;;;;4.04;100.00;100219.75;4998880;28;20208;-73
2023/02/01 11:56:36;;;;;;;1.53;1.23;;;;;;;4.02;100.00;100205.16;4999990;28;20215;-74
2023/02/01 11:59:17;;;;;;;4.87;1.30;;;;;;;4.02;100.00;100213.72;5005784;28;20204;-74
2023/02/01 12:01:57;;;;;;;3.57;1.73;;;;;;;4.16;100.00;100209.34;5008462;28;20224;-73